Time;durP1;ratioP1;P1;durP2;ratioP2;P2;SDS_P1;SDS_P2;PMS_P1;PMS_P2;Temp;Humidity;BMP_temperature;BMP_pressure;BME280_temperature;BME280_humidity;BME280_pressure;Samples;Min_cycle;Max_cycle;Signal;HPM_P1;HPM_P2
2022/02/09 00:01:30;;;;;;;10.43;3.73;;;;;;;0.85;87.73;101244.81;4874205;29;20157;-80
2022/02/09 00:04:11;;;;;;;7.33;2.90;;;;;;;0.98;87.26;101245.13;4874264;29;20431;-78
2022/02/09 00:09:05;;;;;;;7.90;2.60;;;;;;;0.89;86.97;101213.84;4877859;29;20105;-74
2022/02/09 00:12:03;;;;;;;9.73;3.07;;;;;;;0.98;87.34;101231.56;4877666;29;20037;-80
2022/02/09 00:19:33;;;;;;;6.27;3.13;;;;;;;0.62;88.26;101236.03;4840371;29;20089;-75
2022/02/09 00:25:06;;;;;;;5.43;2.80;;;;;;;0.66;87.72;101238.13;4840300;29;20124;-74
2022/02/09 01:56:09;;;;;;;8.83;3.53;;;;;;;-1.21;95.27;101229.47;4992438;28;20081;-76
2022/02/09 01:58:35;;;;;;;14.13;3.83;;;;;;;-0.87;95.33;101278.31;4975105;28;20030;-82
2022/02/09 02:01:01;;;;;;;9.77;3.80;;;;;;;-0.76;95.92;101245.47;4992292;28;20022;-77
2022/02/09 02:03:27;;;;;;;9.27;3.40;;;;;;;-0.62;92.08;101234.06;4992439;28;20152;-77
2022/02/09 02:05:55;;;;;;;8.73;4.00;;;;;;;-0.57;93.54;101266.75;4970427;28;20210;-80
2022/02/09 02:08:21;;;;;;;8.50;4.60;;;;;;;-0.71;93.06;101226.50;4970342;28;20093;-79
2022/02/09 03:13:49;;;;;;;10.40;4.00;;;;;;;-0.46;94.27;101267.75;4893632;29;20183;-77
2022/02/09 03:16:25;;;;;;;36.53;15.50;;;;;;;-0.52;93.40;101251.97;4893899;29;20060;-77
2022/02/09 03:22:12;;;;;;;7.80;3.47;;;;;;;-0.44;92.65;101270.44;4874851;29;20068;-76
2022/02/09 03:25:17;;;;;;;8.83;2.63;;;;;;;-0.85;93.43;101274.28;4874727;29;20069;-77
2022/02/09 03:56:26;;;;;;;10.50;3.43;;;;;;;-1.09;95.93;101259.25;4953974;29;20068;-76
2022/02/09 03:58:52;;;;;;;8.87;3.37;;;;;;;-1.26;95.88;101233.16;5013999;28;20030;-76
2022/02/09 04:01:19;;;;;;;9.80;3.10;;;;;;;-1.31;96.04;101232.75;5014250;28;20030;-76
2022/02/09 04:03:45;;;;;;;11.27;3.60;;;;;;;-1.25;96.87;101255.22;5013994;28;20109;-75
2022/02/09 04:06:11;;;;;;;6.80;3.10;;;;;;;-1.32;97.06;101260.47;5011549;28;20556;-78
2022/02/09 04:08:45;;;;;;;12.87;3.23;;;;;;;-1.70;97.49;101220.50;5001177;28;20034;-80
2022/02/09 04:11:20;;;;;;;8.50;2.93;;;;;;;-1.63;97.59;101242.28;4993912;28;20030;-78
2022/02/09 04:19:15;;;;;;;8.77;2.90;;;;;;;-1.65;98.79;101264.00;5013791;28;20048;-79
2022/02/09 04:38:14;;;;;;;9.87;3.37;;;;;;;-1.89;98.43;101262.50;5013353;28;20037;-75
2022/02/09 04:51:04;;;;;;;11.00;3.50;;;;;;;-2.59;100.00;101197.41;4991330;28;20049;-77
2022/02/09 05:26:07;;;;;;;8.37;4.23;;;;;;;-1.63;100.00;101286.19;4950084;29;20125;-80
2022/02/09 05:28:33;;;;;;;8.90;3.50;;;;;;;-1.54;99.95;101286.22;4950787;28;20121;-76
2022/02/09 05:30:58;;;;;;;11.73;4.63;;;;;;;-1.64;100.00;101261.63;4951878;29;20143;-78
2022/02/09 05:33:24;;;;;;;10.83;4.40;;;;;;;-1.53;100.00;101293.06;4951795;29;20530;-74
2022/02/09 05:35:50;;;;;;;15.30;4.20;;;;;;;-1.48;100.00;101296.94;4952761;28;20047;-77
2022/02/09 05:38:17;;;;;;;16.17;6.60;;;;;;;-1.68;100.00;101249.41;4961779;28;20046;-76
2022/02/09 05:40:44;;;;;;;14.93;5.77;;;;;;;-1.23;100.00;101306.94;4957463;28;20035;-77
2022/02/09 05:43:12;;;;;;;14.50;6.27;;;;;;;-1.06;100.00;101305.16;4959836;28;20031;-77
2022/02/09 05:53:21;;;;;;;9.80;5.27;;;;;;;-0.92;99.83;101274.44;4951606;29;20082;-77
2022/02/09 05:55:54;;;;;;;12.73;6.27;;;;;;;-0.64;99.63;101311.69;4951543;29;20126;-76
2022/02/09 05:58:37;;;;;;;11.53;6.53;;;;;;;-0.69;100.00;101301.09;5001748;28;20038;-73
2022/02/09 06:01:04;;;;;;;16.93;7.17;;;;;;;-0.63;100.00;101253.50;4992274;28;20030;-76
2022/02/09 06:03:30;;;;;;;14.03;6.03;;;;;;;-0.28;99.28;101285.47;4992001;28;20042;-75
2022/02/09 06:05:56;;;;;;;12.53;5.73;;;;;;;0.01;97.26;101308.44;4991021;28;20033;-74
2022/02/09 06:08:23;;;;;;;15.13;7.10;;;;;;;0.18;97.62;101320.19;4992047;28;20041;-71
2022/02/09 06:21:59;;;;;;;14.13;6.80;;;;;;;0.36;95.09;101303.19;4989055;28;20540;-74
2022/02/09 06:24:24;;;;;;;17.60;7.53;;;;;;;0.55;94.93;101315.94;4988642;28;20038;-76
2022/02/09 06:26:50;;;;;;;13.00;6.07;;;;;;;0.62;94.79;101319.91;4988752;28;20049;-77
2022/02/09 06:29:16;;;;;;;10.00;5.07;;;;;;;0.73;94.80;101323.44;4988822;28;20070;-76
2022/02/09 06:31:43;;;;;;;9.73;4.77;;;;;;;0.80;94.61;101318.16;4984857;28;20035;-74
2022/02/09 06:34:12;;;;;;;9.17;4.40;;;;;;;0.81;94.45;101309.78;4985839;28;20120;-75
2022/02/09 06:36:42;;;;;;;13.50;5.57;;;;;;;1.04;94.45;101323.63;4969232;28;20528;-77
2022/02/09 06:39:09;;;;;;;16.80;9.38;;;;;;;1.13;95.14;101320.25;4987023;28;20038;-74
2022/02/09 06:41:35;;;;;;;13.47;6.10;;;;;;;1.40;93.08;101331.06;4987802;28;20035;-78
2022/02/09 06:44:03;;;;;;;12.93;6.03;;;;;;;1.58;92.27;101316.50;4971133;28;20042;-75
2022/02/09 06:46:33;;;;;;;12.27;5.50;;;;;;;1.72;91.86;101321.88;4987128;28;20057;-73
2022/02/09 06:49:04;;;;;;;11.43;5.90;;;;;;;1.66;91.38;101286.63;4988614;28;20035;-73
2022/02/09 06:51:33;;;;;;;17.87;8.13;;;;;;;1.92;90.91;101328.72;4970065;28;20173;-73
2022/02/09 06:54:07;;;;;;;13.18;7.13;;;;;;;2.07;90.67;101332.53;5000955;28;20481;-74
2022/02/09 06:59:28;;;;;;;15.80;7.00;;;;;;;2.47;90.88;101332.47;5009799;28;20026;-75
2022/02/09 07:01:55;;;;;;;15.02;7.80;;;;;;;2.74;89.84;101341.50;5009121;28;20026;-75
2022/02/09 07:04:20;;;;;;;9.82;4.82;;;;;;;2.87;87.79;101332.31;5009139;28;20129;-75
2022/02/09 07:06:45;;;;;;;12.13;5.30;;;;;;;2.69;87.25;101302.00;5008345;28;20083;-74
2022/02/09 07:09:11;;;;;;;8.55;4.53;;;;;;;2.89;87.51;101324.03;5008841;28;20036;-75
2022/02/09 07:11:37;;;;;;;10.43;4.97;;;;;;;2.97;86.37;101305.91;4991496;28;20113;-73
2022/02/09 07:14:03;;;;;;;9.63;4.45;;;;;;;3.15;86.06;101330.31;5009685;28;20030;-73
2022/02/09 07:16:30;;;;;;;7.13;3.85;;;;;;;3.35;84.52;101331.94;5008745;28;20112;-75
2022/02/09 07:18:55;;;;;;;13.32;5.20;;;;;;;3.13;84.14;101285.03;4990940;28;20054;-75
2022/02/09 07:21:25;;;;;;;14.20;6.00;;;;;;;3.23;84.94;101295.25;5009108;28;20036;-75
2022/02/09 07:23:53;;;;;;;13.10;5.78;;;;;;;3.53;85.10;101319.72;5008277;28;20476;-75
2022/02/09 07:26:26;;;;;;;13.88;6.57;;;;;;;3.63;84.44;101313.69;4990700;28;20091;-75
2022/02/09 07:28:53;;;;;;;9.05;4.43;;;;;;;3.61;82.73;101324.56;5008959;28;20048;-74
2022/02/09 07:31:20;;;;;;;13.40;4.43;;;;;;;3.75;82.27;101334.22;5009131;28;20105;-76
2022/02/09 07:33:47;;;;;;;10.70;5.00;;;;;;;3.54;83.35;101287.47;5009157;28;20022;-76
2022/02/09 07:36:14;;;;;;;11.95;5.38;;;;;;;3.98;82.98;101335.09;4969275;28;20050;-76
2022/02/09 07:38:41;;;;;;;7.70;4.13;;;;;;;4.05;82.63;101319.47;4990067;28;20137;-74
2022/02/09 07:41:07;;;;;;;20.88;8.15;;;;;;;3.97;83.67;101325.66;4987767;28;20088;-72
2022/02/09 07:52:21;;;;;;;9.90;3.92;;;;;;;4.08;83.90;101341.81;4909067;29;20156;-74
2022/02/09 07:54:46;;;;;;;9.13;3.97;;;;;;;4.05;82.96;101320.34;4908699;29;20035;-74
2022/02/09 07:57:12;;;;;;;11.68;4.03;;;;;;;4.04;85.00;101323.69;4908254;29;20422;-73
2022/02/09 07:59:37;;;;;;;10.50;4.57;;;;;;;4.14;85.16;101339.72;4909377;29;20095;-74
2022/02/09 08:02:03;;;;;;;9.20;3.90;;;;;;;4.27;84.05;101334.75;4893545;29;20092;-75
2022/02/09 08:04:28;;;;;;;11.13;3.95;;;;;;;4.33;82.55;101325.00;4892436;29;20152;-76
2022/02/09 08:06:54;;;;;;;8.20;4.10;;;;;;;4.47;82.26;101338.81;4898733;29;20088;-74
2022/02/09 08:09:29;;;;;;;9.18;4.70;;;;;;;4.44;83.07;101332.63;4911345;29;20045;-77
2022/02/09 08:12:13;;;;;;;9.20;4.07;;;;;;;4.48;83.54;101324.41;4911178;29;20044;-74
2022/02/09 08:31:02;;;;;;;8.93;4.35;;;;;;;5.37;78.47;101314.69;4992507;28;20101;-77
2022/02/09 08:33:27;;;;;;;9.18;3.60;;;;;;;5.59;78.35;101337.56;4994044;28;20026;-74
2022/02/09 08:35:54;;;;;;;10.85;4.03;;;;;;;5.69;78.96;101320.31;4998820;28;20523;-74
2022/02/09 08:38:20;;;;;;;10.20;4.47;;;;;;;5.83;79.89;101309.31;5013801;28;20407;-76
2022/02/09 08:40:46;;;;;;;8.38;3.92;;;;;;;6.30;79.12;101341.63;5013415;28;20037;-75
2022/02/09 08:43:13;;;;;;;8.20;3.72;;;;;;;6.21;79.72;101323.06;5013143;28;20033;-78
2022/02/09 08:45:40;;;;;;;10.20;4.72;;;;;;;6.45;80.71;101341.78;5013718;28;20037;-79
2022/02/09 08:48:07;;;;;;;9.13;4.40;;;;;;;6.31;79.78;101293.00;5013625;28;20033;-78
2022/02/09 08:50:33;;;;;;;7.95;3.70;;;;;;;6.64;78.82;101342.25;5013367;28;20097;-75
2022/02/09 08:52:59;;;;;;;9.95;3.92;;;;;;;6.73;78.56;101341.97;5013352;28;20042;-78
2022/02/09 08:55:25;;;;;;;6.32;3.72;;;;;;;6.81;78.14;101347.59;5013333;28;20544;-76
2022/02/09 08:57:51;;;;;;;7.95;3.72;;;;;;;6.93;77.29;101335.56;5012942;28;20156;-78
2022/02/09 09:00:34;;;;;;;7.38;3.10;;;;;;;6.84;75.77;101328.94;4995805;28;20030;-76
2022/02/09 09:05:55;;;;;;;7.13;2.90;;;;;;;6.69;73.54;101292.88;5013324;28;20116;-75
2022/02/09 09:08:46;;;;;;;8.13;3.08;;;;;;;7.16;72.79;101351.59;5013241;28;20466;-78
2022/02/09 10:33:54;;;;;;;4.22;1.85;;;;;;;8.19;73.82;101326.28;4970430;28;20045;-77
2022/02/09 10:36:20;;;;;;;4.07;2.50;;;;;;;8.20;73.63;101329.72;4969766;28;20105;-78
2022/02/09 10:38:49;;;;;;;3.45;2.38;;;;;;;8.20;73.95;101319.44;4970123;28;20464;-76
2022/02/09 10:41:29;;;;;;;3.72;1.80;;;;;;;8.26;74.28;101328.44;4970031;28;20034;-79
2022/02/09 10:44:05;;;;;;;3.15;1.90;;;;;;;8.33;75.02;101333.97;5010945;28;20496;-81
2022/02/09 10:46:31;;;;;;;7.18;2.30;;;;;;;8.45;73.86;101328.63;5011409;28;20099;-79
2022/02/09 10:48:59;;;;;;;27.73;11.75;;;;;;;8.47;74.15;101333.09;5011450;28;20531;-80
2022/02/09 10:51:46;;;;;;;17.77;7.15;;;;;;;8.49;74.72;101331.53;4975953;28;20454;-81
2022/02/09 10:54:19;;;;;;;4.50;1.95;;;;;;;8.54;74.46;101340.41;5010904;28;20040;-76
2022/02/09 10:56:48;;;;;;;14.05;3.70;;;;;;;8.49;73.87;101336.66;5011670;28;20484;-79
2022/02/09 10:59:16;;;;;;;9.43;4.70;;;;;;;8.55;73.52;101339.59;5011296;28;20392;-80
2022/02/09 11:01:42;;;;;;;6.70;2.30;;;;;;;8.51;72.16;101339.31;5011351;28;20121;-79
2022/02/09 11:04:09;;;;;;;8.88;2.95;;;;;;;8.55;72.39;101336.16;5010925;28;20107;-78
2022/02/09 11:06:37;;;;;;;10.15;6.97;;;;;;;8.56;73.75;101335.34;5010999;28;20049;-77
2022/02/09 11:09:05;;;;;;;6.13;3.10;;;;;;;8.35;74.10;101258.63;5010902;28;20558;-78
2022/02/09 11:11:32;;;;;;;5.40;2.47;;;;;;;8.90;75.31;101297.00;5011096;28;20037;-78
2022/02/09 11:13:59;;;;;;;7.35;2.58;;;;;;;9.18;73.82;101306.31;5010950;28;20033;-80
2022/02/09 11:16:27;;;;;;;2.28;1.73;;;;;;;9.37;72.01;101294.41;5010844;28;20394;-80
2022/02/09 11:18:55;;;;;;;3.38;1.83;;;;;;;9.75;70.38;101311.09;4992428;28;20061;-79
2022/02/09 11:21:37;;;;;;;4.82;2.38;;;;;;;9.59;70.17;101272.41;4969062;28;20604;-78
2022/02/09 11:24:21;;;;;;;4.10;2.00;;;;;;;9.58;70.72;101302.44;4969503;28;20117;-76
2022/02/09 11:27:04;;;;;;;4.45;1.70;;;;;;;9.48;72.51;101283.03;4969514;28;20126;-76
2022/02/09 11:29:43;;;;;;;3.17;1.90;;;;;;;9.20;71.14;101252.28;4937249;28;20045;-78
2022/02/09 11:35:17;;;;;;;17.15;11.27;;;;;;;9.45;69.00;101308.63;4969360;28;20035;-82
2022/02/09 11:54:59;;;;;;;2.72;1.40;;;;;;;9.38;66.84;101248.13;4911834;29;20107;-78
2022/02/09 12:09:34;;;;;;;3.72;1.70;;;;;;;9.87;66.64;101305.72;4915238;29;20063;-78
2022/02/09 12:12:05;;;;;;;5.03;2.25;;;;;;;9.86;67.55;101309.09;4901107;29;20056;-79
2022/02/09 12:14:49;;;;;;;4.13;1.75;;;;;;;9.96;67.96;101320.78;4915465;29;20040;-79
2022/02/09 12:17:26;;;;;;;3.17;1.67;;;;;;;9.91;67.38;101322.25;4915426;29;20060;-79
2022/02/09 12:20:00;;;;;;;3.10;1.50;;;;;;;9.94;66.63;101317.25;4915171;29;20032;-80
2022/02/09 12:22:29;;;;;;;3.40;1.50;;;;;;;9.66;66.63;101277.09;4915152;29;20067;-78
2022/02/09 12:24:58;;;;;;;5.73;1.87;;;;;;;9.91;65.85;101322.25;4915198;29;20110;-76
2022/02/09 12:27:23;;;;;;;5.20;1.70;;;;;;;9.82;65.71;101309.72;4915236;29;20076;-82
2022/02/09 12:29:59;;;;;;;9.85;5.28;;;;;;;9.90;66.80;101312.72;4915230;29;20040;-81
2022/02/09 12:32:28;;;;;;;4.95;1.80;;;;;;;9.80;65.82;101286.44;5013791;28;20045;-79
2022/02/09 12:35:09;;;;;;;2.05;1.45;;;;;;;10.07;65.66;101319.66;5013847;28;20075;-78
2022/02/09 12:37:44;;;;;;;8.60;2.40;;;;;;;10.11;66.41;101300.94;5013763;28;20171;-76
2022/02/09 12:40:15;;;;;;;1.90;1.30;;;;;;;10.18;64.54;101300.47;4979006;28;20538;-78
2022/02/09 12:42:49;;;;;;;6.82;4.65;;;;;;;10.14;64.92;101280.47;5013432;28;20033;-78
2022/02/09 12:45:17;;;;;;;4.47;2.05;;;;;;;10.43;63.87;101314.69;5013594;28;20033;-76
2022/02/09 12:47:44;;;;;;;8.88;6.32;;;;;;;10.34;63.64;101298.66;5013715;28;20096;-76
2022/02/09 12:50:12;;;;;;;3.45;2.20;;;;;;;10.22;64.21;101283.44;5013454;28;20141;-80
2022/02/09 12:52:41;;;;;;;2.33;1.50;;;;;;;10.05;63.80;101305.78;5013329;28;20049;-79
2022/02/09 12:55:08;;;;;;;4.75;1.90;;;;;;;9.97;64.28;101309.66;5013426;28;20077;-78
2022/02/09 12:57:38;;;;;;;5.28;2.30;;;;;;;9.88;64.15;101312.63;5013321;28;20037;-77
2022/02/09 13:00:20;;;;;;;6.57;2.85;;;;;;;9.72;64.56;101303.22;5013235;28;20041;-77
2022/02/09 13:02:46;;;;;;;3.95;1.70;;;;;;;9.61;64.47;101317.19;4994940;28;20433;-82
2022/02/09 13:05:13;;;;;;;2.92;1.48;;;;;;;9.43;65.68;101297.34;5013123;28;20030;-78
2022/02/09 13:07:40;;;;;;;4.20;1.50;;;;;;;9.55;63.97;101310.88;5012707;28;20053;-83
2022/02/09 13:10:07;;;;;;;2.42;1.20;;;;;;;9.44;64.12;101313.69;5013579;28;20029;-78
2022/02/09 13:12:36;;;;;;;3.70;1.58;;;;;;;9.45;64.99;101328.38;5006816;28;20033;-75
2022/02/09 13:15:26;;;;;;;3.80;2.00;;;;;;;9.39;63.81;101316.00;5012517;28;20085;-82
2022/02/09 14:11:23;;;;;;;2.95;1.70;;;;;;;9.69;58.68;101339.13;5012223;28;20037;-77
2022/02/09 14:16:36;;;;;;;6.13;3.25;;;;;;;9.36;60.01;101302.97;5011781;28;20064;-78
2022/02/09 14:55:55;;;;;;;5.68;3.13;;;;;;;8.71;72.05;101384.25;4992798;28;20041;-79
2022/02/09 14:58:30;;;;;;;5.53;2.75;;;;;;;8.74;71.12;101389.59;5011427;28;20037;-77
2022/02/09 15:08:51;;;;;;;6.50;3.83;;;;;;;8.79;71.01;101392.47;5010923;28;20032;-74
2022/02/09 15:16:37;;;;;;;7.00;3.50;;;;;;;8.74;70.76;101389.59;4969418;28;20043;-75
2022/02/09 15:22:06;;;;;;;8.90;3.38;;;;;;;8.43;71.72;101359.44;4969488;28;20031;-76
2022/02/09 15:24:38;;;;;;;7.47;3.40;;;;;;;8.53;71.71;101377.22;4969287;28;20031;-75
2022/02/09 15:27:05;;;;;;;7.80;3.00;;;;;;;8.41;72.37;101374.78;4969327;28;20433;-75
2022/02/09 15:29:32;;;;;;;10.05;3.20;;;;;;;8.60;72.48;101390.47;4969269;28;20045;-77
2022/02/09 15:32:02;;;;;;;15.77;7.28;;;;;;;8.65;72.36;101395.09;4969642;28;20078;-75
2022/02/09 15:34:35;;;;;;;17.50;8.05;;;;;;;8.53;71.94;101374.66;4969444;28;20042;-76
2022/02/09 15:39:37;;;;;;;64.18;36.88;;;;;;;8.41;72.32;101361.00;4973230;28;20138;-77
2022/02/09 15:42:13;;;;;;;20.58;10.70;;;;;;;8.47;72.53;101383.69;4973108;28;20034;-75
2022/02/09 16:09:23;;;;;;;40.55;25.40;;;;;;;8.04;75.42;101413.69;5012289;28;20040;-76
2022/02/09 16:22:40;;;;;;;71.72;34.75;;;;;;;7.74;75.19;101443.50;5013700;28;20181;-76
2022/02/09 16:46:39;;;;;;;26.67;15.52;;;;;;;6.76;80.26;101483.31;4952640;29;20047;-79
2022/02/09 16:49:10;;;;;;;28.00;13.82;;;;;;;6.73;79.97;101465.13;4951574;28;20040;-79
2022/02/09 16:51:49;;;;;;;31.05;12.45;;;;;;;6.44;80.56;101430.69;4952696;29;20118;-80
2022/02/09 16:56:58;;;;;;;82.55;45.92;;;;;;;6.77;80.26;101484.22;4952317;29;20426;-80
2022/02/09 17:18:50;;;;;;;32.40;15.32;;;;;;;5.26;84.71;101489.66;5012067;28;20080;-71
2022/02/09 17:21:21;;;;;;;29.65;15.55;;;;;;;5.21;85.90;101506.34;5011986;28;20022;-74
2022/02/09 17:23:48;;;;;;;37.10;17.85;;;;;;;5.21;86.33;101508.91;4993034;28;20137;-74
2022/02/09 17:26:15;;;;;;;37.78;18.08;;;;;;;4.78;86.40;101475.84;5008876;28;20691;-75
2022/02/09 17:28:42;;;;;;;66.22;32.40;;;;;;;4.50;88.01;101466.06;5009495;28;20397;-72
2022/02/09 17:31:35;;;;;;;70.22;35.38;;;;;;;4.65;89.86;101510.69;5011783;28;20403;-76
2022/02/09 17:58:13;;;;;;;54.92;29.40;;;;;;;5.05;88.73;101529.88;5031802;28;20053;-76
2022/02/09 18:00:39;;;;;;;66.97;32.72;;;;;;;5.03;89.23;101540.00;5031090;28;20026;-74
2022/02/09 18:03:05;;;;;;;64.07;35.05;;;;;;;5.05;89.64;101511.97;5031280;28;20025;-81
2022/02/09 18:08:08;;;;;;;61.15;35.85;;;;;;;5.19;88.75;101531.84;5031668;28;20056;-82
2022/02/09 18:29:31;;;;;;;39.47;21.58;;;;;;;5.31;90.71;101560.94;4971870;28;20080;-76
2022/02/09 19:04:28;;;;;;;27.90;17.90;;;;;;;4.95;90.46;101590.59;4896287;29;20032;-79
2022/02/09 19:17:43;;;;;;;34.55;20.33;;;;;;;4.99;89.11;101550.78;4909197;29;20047;-80
2022/02/09 19:49:55;;;;;;;17.50;10.43;;;;;;;4.70;92.29;101641.53;4892138;29;20161;-81
2022/02/09 19:55:30;;;;;;;18.55;11.32;;;;;;;4.65;91.30;101633.47;4891973;29;20055;-80
2022/02/09 19:57:56;;;;;;;22.35;12.18;;;;;;;4.61;91.56;101636.56;4890628;29;20522;-80
2022/02/09 20:00:25;;;;;;;25.52;14.15;;;;;;;4.36;92.06;101598.81;4892559;29;20138;-77
2022/02/09 20:02:50;;;;;;;21.90;11.60;;;;;;;4.44;92.23;101601.97;4851638;29;20042;-76
2022/02/09 20:05:19;;;;;;;21.73;11.43;;;;;;;4.61;91.75;101633.09;4855335;29;20425;-81
2022/02/09 20:07:45;;;;;;;27.33;13.50;;;;;;;4.60;91.91;101642.47;4855487;29;20075;-77
2022/02/09 20:10:12;;;;;;;29.13;12.77;;;;;;;4.65;91.74;101648.81;4855464;29;20353;-78
2022/02/09 20:12:39;;;;;;;24.73;11.68;;;;;;;4.61;91.41;101661.25;4855013;29;20048;-79
2022/02/09 20:15:05;;;;;;;31.63;16.80;;;;;;;4.42;90.89;101654.63;4867566;29;20048;-80
2022/02/09 20:17:31;;;;;;;28.05;16.27;;;;;;;4.32;91.74;101659.78;4892372;29;20041;-78
2022/02/09 20:19:58;;;;;;;25.00;14.25;;;;;;;4.33;92.36;101665.00;4889911;29;20044;-74
2022/02/09 20:22:23;;;;;;;29.80;17.88;;;;;;;4.16;91.35;101634.63;4905298;29;20575;-75
2022/02/09 20:24:49;;;;;;;37.20;21.80;;;;;;;4.25;91.88;101660.06;4915979;29;20040;-79
2022/02/09 20:27:19;;;;;;;34.83;20.60;;;;;;;4.01;92.87;101639.38;4952526;29;20039;-80
2022/02/09 20:29:45;;;;;;;35.65;21.65;;;;;;;4.01;93.09;101645.41;4952952;29;20664;-83
2022/02/09 20:32:20;;;;;;;32.88;22.05;;;;;;;3.88;93.17;101627.28;4953009;29;20138;-81
2022/02/09 20:34:53;;;;;;;40.00;26.77;;;;;;;3.94;94.10;101644.75;4989738;28;20125;-79
2022/02/09 20:37:20;;;;;;;33.72;19.85;;;;;;;3.90;94.02;101646.19;4994011;28;20489;-77
2022/02/09 20:39:57;;;;;;;26.23;15.80;;;;;;;3.68;94.29;101634.16;5001073;28;20095;-74
2022/02/09 20:42:24;;;;;;;23.15;12.82;;;;;;;3.40;94.67;101643.72;5013079;28;20053;-72
2022/02/09 20:44:58;;;;;;;14.27;10.05;;;;;;;3.08;94.30;101642.75;5023053;28;20033;-74
2022/02/09 20:47:23;;;;;;;21.60;10.82;;;;;;;2.92;97.96;101644.75;5033274;28;20112;-73
2022/02/09 20:49:49;;;;;;;18.98;10.30;;;;;;;3.03;97.32;101644.03;5032891;28;20039;-74
2022/02/09 20:52:16;;;;;;;18.77;10.90;;;;;;;3.10;96.83;101659.88;5032532;28;20026;-72
2022/02/09 20:54:44;;;;;;;21.30;13.68;;;;;;;3.16;98.31;101660.41;5033138;28;20084;-75
2022/02/09 20:57:10;;;;;;;19.52;12.10;;;;;;;3.10;99.23;101654.75;5022169;28;20117;-75
2022/02/09 20:59:41;;;;;;;20.70;12.82;;;;;;;3.31;99.45;101666.78;5011655;28;20480;-74
2022/02/09 21:02:32;;;;;;;22.15;12.98;;;;;;;3.47;99.73;101670.69;5029903;28;20037;-75
2022/02/09 21:05:08;;;;;;;23.70;12.25;;;;;;;3.49;99.91;101652.16;5031411;28;20519;-78
2022/02/09 21:07:46;;;;;;;20.77;12.82;;;;;;;3.26;100.00;101649.31;5011856;28;20465;-74
2022/02/09 21:13:06;;;;;;;21.55;12.90;;;;;;;3.27;100.00;101669.88;4985768;28;20058;-78
2022/02/09 21:15:52;;;;;;;19.08;12.25;;;;;;;3.37;100.00;101671.53;4990703;28;20050;-78
2022/02/09 21:58:08;;;;;;;17.95;13.70;;;;;;;2.85;97.95;101655.19;4894320;29;20397;-75
2022/02/09 22:22:03;;;;;;;18.95;12.80;;;;;;;2.56;100.00;101701.97;4972151;28;20553;-77
2022/02/09 22:25:45;;;;;;;24.13;13.93;;;;;;;2.61;100.00;101715.13;4964954;28;20114;-78
2022/02/09 22:54:25;;;;;;;25.47;15.70;;;;;;;2.18;100.00;101718.16;4991274;28;20467;-75
2022/02/09 22:56:20;;;;;;;23.47;14.47;;;;;;;2.13;100.00;101719.41;4991425;28;20467;-77
2022/02/09 22:58:46;;;;;;;24.20;16.27;;;;;;;2.06;100.00;101705.19;4991366;28;20026;-79
2022/02/09 23:01:20;;;;;;;25.60;17.20;;;;;;;2.14;100.00;101705.00;4991615;28;20050;-76
2022/02/09 23:06:56;;;;;;;30.77;16.23;;;;;;;2.34;100.00;101709.34;4950290;29;20733;-76
2022/02/09 23:12:15;;;;;;;19.27;13.50;;;;;;;2.31;100.00;101716.72;4949839;29;20045;-74
2022/02/09 23:58:27;;;;;;;19.57;13.13;;;;;;;1.65;100.00;101729.41;4969166;28;20039;-76
